sensor_id;sensor_type;location;lat;lon;timestamp;pressure;altitude;pressure_sealevel;temperature;humidity
78625;BME280;67944;0.000;0.000;2024-01-16T00:00:49;100072.94;;;19.46;26.44
78625;BME280;67944;0.000;0.000;2024-01-16T00:03:14;100068.50;;;19.46;26.42
78625;BME280;67944;0.000;0.000;2024-01-16T00:05:40;100057.28;;;19.44;26.51
78625;BME280;67944;0.000;0.000;2024-01-16T00:08:05;100066.22;;;19.43;26.06
78625;BME280;67944;0.000;0.000;2024-01-16T00:10:31;100058.28;;;19.43;26.00
78625;BME280;67944;0.000;0.000;2024-01-16T00:12:56;100059.09;;;19.44;26.65
78625;BME280;67944;0.000;0.000;2024-01-16T00:15:22;100068.03;;;19.43;26.01
78625;BME280;67944;0.000;0.000;2024-01-16T00:17:47;100072.50;;;19.42;26.03
78625;BME280;67944;0.000;0.000;2024-01-16T00:20:13;100074.31;;;19.42;26.44
78625;BME280;67944;0.000;0.000;2024-01-16T00:22:38;100081.41;;;19.41;26.11
78625;BME280;67944;0.000;0.000;2024-01-16T00:25:04;100084.06;;;19.41;26.71
78625;BME280;67944;0.000;0.000;2024-01-16T00:27:30;100082.41;;;19.40;26.59
78625;BME280;67944;0.000;0.000;2024-01-16T00:29:55;100086.06;;;19.39;26.65
78625;BME280;67944;0.000;0.000;2024-01-16T00:32:21;100093.97;;;19.39;26.00
78625;BME280;67944;0.000;0.000;2024-01-16T00:34:46;100094.97;;;19.38;26.59
78625;BME280;67944;0.000;0.000;2024-01-16T00:37:12;100100.25;;;19.38;26.65
78625;BME280;67944;0.000;0.000;2024-01-16T00:39:37;100095.97;;;19.37;26.49
78625;BME280;67944;0.000;0.000;2024-01-16T00:42:03;100096.16;;;19.36;26.08
78625;BME280;67944;0.000;0.000;2024-01-16T00:44:28;100101.44;;;19.36;26.28
78625;BME280;67944;0.000;0.000;2024-01-16T00:46:54;100105.88;;;19.35;26.01
78625;BME280;67944;0.000;0.000;2024-01-16T00:49:19;100111.16;;;19.35;26.48
78625;BME280;67944;0.000;0.000;2024-01-16T00:51:45;100106.88;;;19.34;26.66
78625;BME280;67944;0.000;0.000;2024-01-16T00:54:10;100114.81;;;19.34;26.30
78625;BME280;67944;0.000;0.000;2024-01-16T00:56:36;100115.81;;;19.33;26.15
78625;BME280;67944;0.000;0.000;2024-01-16T00:59:02;100118.44;;;19.33;26.51
78625;BME280;67944;0.000;0.000;2024-01-16T01:01:27;100119.44;;;19.32;26.08
78625;BME280;67944;0.000;0.000;2024-01-16T01:03:53;100119.44;;;19.32;26.11
78625;BME280;67944;0.000;0.000;2024-01-16T01:06:19;100123.09;;;19.31;25.82
78625;BME280;67944;0.000;0.000;2024-01-16T01:08:44;100126.72;;;19.30;26.50
78625;BME280;67944;0.000;0.000;2024-01-16T01:11:11;100125.91;;;19.30;26.08
78625;BME280;67944;0.000;0.000;2024-01-16T01:13:36;100126.72;;;19.30;26.49
78625;BME280;67944;0.000;0.000;2024-01-16T01:16:02;100131.19;;;19.30;25.88
78625;BME280;67944;0.000;0.000;2024-01-16T01:18:28;100135.66;;;19.29;26.57
78625;BME280;67944;0.000;0.000;2024-01-16T01:20:53;100131.38;;;19.28;26.05
78625;BME280;67944;0.000;0.000;2024-01-16T01:23:19;100138.47;;;19.28;26.66
78625;BME280;67944;0.000;0.000;2024-01-16T01:25:44;100133.38;;;19.26;26.05
78625;BME280;67944;0.000;0.000;2024-01-16T01:28:10;100135.22;;;19.26;26.57
78625;BME280;67944;0.000;0.000;2024-01-16T01:30:36;100131.56;;;19.27;26.20
78625;BME280;67944;0.000;0.000;2024-01-16T01:33:02;100129.94;;;19.26;26.70
78625;BME280;67944;0.000;0.000;2024-01-16T01:35:27;100134.38;;;19.25;26.21
78625;BME280;67944;0.000;0.000;2024-01-16T01:37:53;100141.50;;;19.25;26.18
78625;BME280;67944;0.000;0.000;2024-01-16T01:40:18;100132.75;;;19.24;26.78
78625;BME280;67944;0.000;0.000;2024-01-16T01:42:44;100132.75;;;19.24;26.49
78625;BME280;67944;0.000;0.000;2024-01-16T01:45:10;100141.66;;;19.23;26.65
78625;BME280;67944;0.000;0.000;2024-01-16T01:47:37;100146.94;;;19.23;26.64
78625;BME280;67944;0.000;0.000;2024-01-16T01:50:03;100150.59;;;19.22;26.02
78625;BME280;67944;0.000;0.000;2024-01-16T01:52:30;100148.13;;;19.21;26.29
78625;BME280;67944;0.000;0.000;2024-01-16T01:54:56;100160.50;;;19.20;26.52
78625;BME280;67944;0.000;0.000;2024-01-16T01:57:23;100161.31;;;19.21;25.84
78625;BME280;67944;0.000;0.000;2024-01-16T01:59:49;100171.06;;;19.20;26.16
78625;BME280;67944;0.000;0.000;2024-01-16T02:02:16;100167.59;;;19.20;26.57
78625;BME280;67944;0.000;0.000;2024-01-16T02:04:44;100177.34;;;19.19;26.20
78625;BME280;67944;0.000;0.000;2024-01-16T02:07:11;100180.97;;;19.18;26.26
78625;BME280;67944;0.000;0.000;2024-01-16T02:09:37;100183.63;;;19.18;26.56
78625;BME280;67944;0.000;0.000;2024-01-16T02:12:04;100188.88;;;19.18;26.30
78625;BME280;67944;0.000;0.000;2024-01-16T02:14:29;100188.88;;;19.18;26.06
78625;BME280;67944;0.000;0.000;2024-01-16T02:16:55;100189.06;;;19.16;26.50
78625;BME280;67944;0.000;0.000;2024-01-16T02:19:20;100187.41;;;19.15;26.11
78625;BME280;67944;0.000;0.000;2024-01-16T02:21:49;100187.41;;;19.15;26.29
78625;BME280;67944;0.000;0.000;2024-01-16T02:24:18;100186.59;;;19.15;26.26
78625;BME280;67944;0.000;0.000;2024-01-16T02:26:44;100183.13;;;19.14;26.31
78625;BME280;67944;0.000;0.000;2024-01-16T02:29:10;100172.59;;;19.14;25.82
78625;BME280;67944;0.000;0.000;2024-01-16T02:31:35;100172.75;;;19.13;26.51
78625;BME280;67944;0.000;0.000;2024-01-16T02:34:01;100176.38;;;19.12;26.18
78625;BME280;67944;0.000;0.000;2024-01-16T02:36:29;100169.47;;;19.11;26.07
78625;BME280;67944;0.000;0.000;2024-01-16T02:38:55;100181.66;;;19.12;26.58
78625;BME280;67944;0.000;0.000;2024-01-16T02:41:21;100176.56;;;19.10;26.54
78625;BME280;67944;0.000;0.000;2024-01-16T02:43:46;100175.75;;;19.10;26.41
78625;BME280;67944;0.000;0.000;2024-01-16T02:46:13;100173.09;;;19.10;26.14
78625;BME280;67944;0.000;0.000;2024-01-16T02:48:39;100175.75;;;19.10;26.18
78625;BME280;67944;0.000;0.000;2024-01-16T02:51:05;100166.34;;;19.07;26.20
78625;BME280;67944;0.000;0.000;2024-01-16T02:53:31;100177.75;;;19.08;25.95
78625;BME280;67944;0.000;0.000;2024-01-16T02:55:57;100182.19;;;19.07;26.20
78625;BME280;67944;0.000;0.000;2024-01-16T02:58:29;100169.19;;;19.06;26.42
78625;BME280;67944;0.000;0.000;2024-01-16T03:00:56;100170.00;;;19.06;26.65
78625;BME280;67944;0.000;0.000;2024-01-16T03:03:22;100170.19;;;19.05;26.25
78625;BME280;67944;0.000;0.000;2024-01-16T03:05:48;100172.84;;;19.05;26.21
78625;BME280;67944;0.000;0.000;2024-01-16T03:08:13;100179.94;;;19.04;26.66
78625;BME280;67944;0.000;0.000;2024-01-16T03:10:39;100179.94;;;19.04;26.14
78625;BME280;67944;0.000;0.000;2024-01-16T03:13:05;100180.75;;;19.05;25.95
78625;BME280;67944;0.000;0.000;2024-01-16T03:15:30;100180.75;;;19.05;26.08
78625;BME280;67944;0.000;0.000;2024-01-16T03:17:57;100187.66;;;19.06;26.61
78625;BME280;67944;0.000;0.000;2024-01-16T03:20:23;100184.19;;;19.05;25.85
78625;BME280;67944;0.000;0.000;2024-01-16T03:22:49;100190.28;;;19.06;26.42
78625;BME280;67944;0.000;0.000;2024-01-16T03:25:14;100190.94;;;19.08;26.03
78625;BME280;67944;0.000;0.000;2024-01-16T03:27:40;100186.66;;;19.07;26.02
78625;BME280;67944;0.000;0.000;2024-01-16T03:30:06;100187.31;;;19.09;26.12
78625;BME280;67944;0.000;0.000;2024-01-16T03:32:32;100196.84;;;19.10;26.65
78625;BME280;67944;0.000;0.000;2024-01-16T03:34:57;100193.22;;;19.11;26.18
78625;BME280;67944;0.000;0.000;2024-01-16T03:37:23;100188.59;;;19.13;25.97
78625;BME280;67944;0.000;0.000;2024-01-16T03:39:48;100193.69;;;19.14;26.59
78625;BME280;67944;0.000;0.000;2024-01-16T03:42:15;100186.44;;;19.16;26.57
78625;BME280;67944;0.000;0.000;2024-01-16T03:44:41;100196.81;;;19.18;26.26
78625;BME280;67944;0.000;0.000;2024-01-16T03:47:07;100190.53;;;19.19;26.10
78625;BME280;67944;0.000;0.000;2024-01-16T03:49:32;100186.72;;;19.22;26.63
78625;BME280;67944;0.000;0.000;2024-01-16T03:51:58;100185.53;;;19.24;26.03
78625;BME280;67944;0.000;0.000;2024-01-16T03:54:24;100191.47;;;19.26;26.11
78625;BME280;67944;0.000;0.000;2024-01-16T03:56:49;100189.44;;;19.28;25.96
78625;BME280;67944;0.000;0.000;2024-01-16T03:59:15;100178.72;;;19.30;26.25
78625;BME280;67944;0.000;0.000;2024-01-16T04:01:40;100180.19;;;19.32;26.57
78625;BME280;67944;0.000;0.000;2024-01-16T04:04:07;100179.00;;;19.35;26.08
78625;BME280;67944;0.000;0.000;2024-01-16T04:06:33;100172.56;;;19.37;26.42
78625;BME280;67944;0.000;0.000;2024-01-16T04:08:58;100170.56;;;19.39;26.17
78625;BME280;67944;0.000;0.000;2024-01-16T04:11:24;100171.19;;;19.41;25.98
78625;BME280;67944;0.000;0.000;2024-01-16T04:13:49;100173.47;;;19.44;26.58
78625;BME280;67944;0.000;0.000;2024-01-16T04:16:15;100174.13;;;19.46;26.15
78625;BME280;67944;0.000;0.000;2024-01-16T04:18:42;100172.91;;;19.49;26.65
78625;BME280;67944;0.000;0.000;2024-01-16T04:21:09;100171.94;;;19.50;26.14
78625;BME280;67944;0.000;0.000;2024-01-16T04:23:34;100169.78;;;19.54;25.81
78625;BME280;67944;0.000;0.000;2024-01-16T04:26:00;100178.34;;;19.56;26.18
78625;BME280;67944;0.000;0.000;2024-01-16T04:28:25;100171.78;;;19.51;26.22
78625;BME280;67944;0.000;0.000;2024-01-16T04:30:51;100177.44;;;19.26;25.29
78625;BME280;67944;0.000;0.000;2024-01-16T04:33:17;100191.72;;;18.94;25.27
78625;BME280;67944;0.000;0.000;2024-01-16T04:35:44;100195.66;;;18.67;25.35
78625;BME280;67944;0.000;0.000;2024-01-16T04:38:09;100186.88;;;18.43;25.17
78625;BME280;67944;0.000;0.000;2024-01-16T04:40:35;100182.34;;;18.21;25.20
78625;BME280;67944;0.000;0.000;2024-01-16T04:43:01;100182.41;;;18.05;25.60
78625;BME280;67944;0.000;0.000;2024-01-16T04:45:26;100189.81;;;18.09;25.87
78625;BME280;67944;0.000;0.000;2024-01-16T04:47:51;100177.91;;;18.22;26.09
78625;BME280;67944;0.000;0.000;2024-01-16T04:50:18;100174.56;;;18.36;25.97
78625;BME280;67944;0.000;0.000;2024-01-16T04:52:43;100177.63;;;18.47;26.36
78625;BME280;67944;0.000;0.000;2024-01-16T04:55:09;100177.94;;;18.61;26.36
78625;BME280;67944;0.000;0.000;2024-01-16T04:57:34;100168.94;;;18.70;25.99
78625;BME280;67944;0.000;0.000;2024-01-16T05:00:00;100160.81;;;18.79;26.21
78625;BME280;67944;0.000;0.000;2024-01-16T05:02:25;100159.75;;;18.89;26.28
78625;BME280;67944;0.000;0.000;2024-01-16T05:04:50;100165.78;;;18.97;25.95
78625;BME280;67944;0.000;0.000;2024-01-16T05:07:20;100167.34;;;19.06;26.02
78625;BME280;67944;0.000;0.000;2024-01-16T05:09:46;100164.66;;;19.14;26.20
78625;BME280;67944;0.000;0.000;2024-01-16T05:12:11;100169.06;;;19.22;26.21
78625;BME280;67944;0.000;0.000;2024-01-16T05:14:37;100163.88;;;19.29;26.19
78625;BME280;67944;0.000;0.000;2024-01-16T05:17:03;100155.25;;;19.35;26.16
78625;BME280;67944;0.000;0.000;2024-01-16T05:19:28;100151.88;;;19.41;25.56
78625;BME280;67944;0.000;0.000;2024-01-16T05:21:54;100145.91;;;19.47;26.24
78625;BME280;67944;0.000;0.000;2024-01-16T05:24:19;100150.47;;;19.53;25.65
78625;BME280;67944;0.000;0.000;2024-01-16T05:26:45;100149.94;;;19.58;25.77
78625;BME280;67944;0.000;0.000;2024-01-16T05:29:10;100144.94;;;19.63;25.69
78625;BME280;67944;0.000;0.000;2024-01-16T05:31:43;100143.56;;;19.67;26.02
78625;BME280;67944;0.000;0.000;2024-01-16T05:34:11;100144.66;;;19.72;25.46
78625;BME280;67944;0.000;0.000;2024-01-16T05:36:37;100145.09;;;19.76;26.18
78625;BME280;67944;0.000;0.000;2024-01-16T05:39:02;100133.00;;;19.81;25.53
78625;BME280;67944;0.000;0.000;2024-01-16T05:41:33;100136.09;;;19.85;25.73
78625;BME280;67944;0.000;0.000;2024-01-16T05:43:58;100143.47;;;19.90;25.74
78625;BME280;67944;0.000;0.000;2024-01-16T05:46:24;100129.69;;;19.94;25.53
78625;BME280;67944;0.000;0.000;2024-01-16T05:48:49;100130.16;;;19.98;25.63
78625;BME280;67944;0.000;0.000;2024-01-16T05:51:15;100129.59;;;20.02;26.09
78625;BME280;67944;0.000;0.000;2024-01-16T05:53:41;100122.94;;;20.06;25.16
78625;BME280;67944;0.000;0.000;2024-01-16T05:56:06;100126.06;;;20.10;25.50
78625;BME280;67944;0.000;0.000;2024-01-16T05:58:33;100126.69;;;20.12;25.71
78625;BME280;67944;0.000;0.000;2024-01-16T06:01:06;100122.81;;;20.14;25.50
78625;BME280;67944;0.000;0.000;2024-01-16T06:03:32;100125.75;;;20.19;25.17
78625;BME280;67944;0.000;0.000;2024-01-16T06:05:58;100126.19;;;20.23;25.64
78625;BME280;67944;0.000;0.000;2024-01-16T06:08:24;100127.00;;;20.24;25.76
78625;BME280;67944;0.000;0.000;2024-01-16T06:10:49;100128.09;;;20.29;25.87
78625;BME280;67944;0.000;0.000;2024-01-16T06:13:15;100131.19;;;20.33;25.51
78625;BME280;67944;0.000;0.000;2024-01-16T06:15:40;100137.91;;;20.35;25.39
78625;BME280;67944;0.000;0.000;2024-01-16T06:18:06;100140.22;;;20.38;25.63
78625;BME280;67944;0.000;0.000;2024-01-16T06:20:31;100136.38;;;20.41;25.56
78625;BME280;67944;0.000;0.000;2024-01-16T06:22:58;100132.56;;;20.43;25.48
78625;BME280;67944;0.000;0.000;2024-01-16T06:25:23;100132.38;;;20.45;25.33
78625;BME280;67944;0.000;0.000;2024-01-16T06:27:49;100130.34;;;20.47;25.44
78625;BME280;67944;0.000;0.000;2024-01-16T06:30:14;100128.34;;;20.49;25.86
78625;BME280;67944;0.000;0.000;2024-01-16T06:32:40;100140.19;;;20.53;25.22
78625;BME280;67944;0.000;0.000;2024-01-16T06:35:05;100136.53;;;20.54;25.38
78625;BME280;67944;0.000;0.000;2024-01-16T06:37:31;100133.50;;;20.57;25.11
78625;BME280;67944;0.000;0.000;2024-01-16T06:39:56;100128.03;;;20.59;25.18
78625;BME280;67944;0.000;0.000;2024-01-16T06:42:22;100126.84;;;20.61;25.55
78625;BME280;67944;0.000;0.000;2024-01-16T06:44:47;100126.47;;;20.64;25.27
78625;BME280;67944;0.000;0.000;2024-01-16T06:47:13;100126.09;;;20.67;25.89
78625;BME280;67944;0.000;0.000;2024-01-16T06:49:38;100128.53;;;20.69;25.15
78625;BME280;67944;0.000;0.000;2024-01-16T06:52:04;100131.00;;;20.70;25.49
78625;BME280;67944;0.000;0.000;2024-01-16T06:54:29;100128.00;;;20.73;25.34
78625;BME280;67944;0.000;0.000;2024-01-16T06:56:55;100120.03;;;20.73;25.22
78625;BME280;67944;0.000;0.000;2024-01-16T06:59:20;100122.69;;;20.73;25.59
78625;BME280;67944;0.000;0.000;2024-01-16T07:01:47;100122.69;;;20.73;25.42
78625;BME280;67944;0.000;0.000;2024-01-16T07:04:13;100123.69;;;20.72;25.75
78625;BME280;67944;0.000;0.000;2024-01-16T07:06:40;100122.06;;;20.71;25.55
78625;BME280;67944;0.000;0.000;2024-01-16T07:09:05;100126.53;;;20.71;25.71
78625;BME280;67944;0.000;0.000;2024-01-16T07:11:30;100127.34;;;20.71;25.34
78625;BME280;67944;0.000;0.000;2024-01-16T07:13:56;100122.88;;;20.72;25.90
78625;BME280;67944;0.000;0.000;2024-01-16T07:16:22;100125.53;;;20.72;25.25
78625;BME280;67944;0.000;0.000;2024-01-16T07:18:48;100128.19;;;20.72;25.20
78625;BME280;67944;0.000;0.000;2024-01-16T07:21:18;100130.63;;;20.73;25.95
78625;BME280;67944;0.000;0.000;2024-01-16T07:23:43;100130.63;;;20.73;25.38
78625;BME280;67944;0.000;0.000;2024-01-16T07:26:09;100134.91;;;20.74;25.87
78625;BME280;67944;0.000;0.000;2024-01-16T07:28:34;100133.91;;;20.75;25.86
78625;BME280;67944;0.000;0.000;2024-01-16T07:31:00;100135.56;;;20.76;25.91
78625;BME280;67944;0.000;0.000;2024-01-16T07:33:25;100134.72;;;20.76;25.49
78625;BME280;67944;0.000;0.000;2024-01-16T07:35:51;100135.56;;;20.76;25.92
78625;BME280;67944;0.000;0.000;2024-01-16T07:38:16;100129.03;;;20.79;25.84
78625;BME280;67944;0.000;0.000;2024-01-16T07:40:42;100124.38;;;20.81;25.33
78625;BME280;67944;0.000;0.000;2024-01-16T07:43:07;100119.72;;;20.83;25.56
78625;BME280;67944;0.000;0.000;2024-01-16T07:45:33;100142.34;;;20.85;25.81
78625;BME280;67944;0.000;0.000;2024-01-16T07:47:58;100133.22;;;20.88;25.49
78625;BME280;67944;0.000;0.000;2024-01-16T07:50:23;100135.66;;;20.90;25.34
78625;BME280;67944;0.000;0.000;2024-01-16T07:52:49;100145.88;;;20.93;25.96
78625;BME280;67944;0.000;0.000;2024-01-16T07:55:15;100133.28;;;20.95;25.40
78625;BME280;67944;0.000;0.000;2024-01-16T07:57:40;100134.72;;;20.97;25.72
78625;BME280;67944;0.000;0.000;2024-01-16T08:00:06;100142.47;;;20.99;25.29
78625;BME280;67944;0.000;0.000;2024-01-16T08:02:37;100141.25;;;21.01;25.31
78625;BME280;67944;0.000;0.000;2024-01-16T08:05:03;100141.88;;;21.03;26.09
78625;BME280;67944;0.000;0.000;2024-01-16T08:07:29;100143.34;;;21.06;25.87
78625;BME280;67944;0.000;0.000;2024-01-16T08:09:55;100136.22;;;21.06;25.96
78625;BME280;67944;0.000;0.000;2024-01-16T08:12:20;100141.13;;;21.09;25.42
78625;BME280;67944;0.000;0.000;2024-01-16T08:14:46;100150.53;;;21.12;25.78
78625;BME280;67944;0.000;0.000;2024-01-16T08:17:11;100141.38;;;21.14;25.89
78625;BME280;67944;0.000;0.000;2024-01-16T08:19:37;100149.13;;;21.16;25.79
78625;BME280;67944;0.000;0.000;2024-01-16T08:22:02;100148.13;;;21.17;25.32
78625;BME280;67944;0.000;0.000;2024-01-16T08:24:28;100147.13;;;21.18;25.44
78625;BME280;67944;0.000;0.000;2024-01-16T08:26:53;100151.41;;;21.19;25.44
78625;BME280;67944;0.000;0.000;2024-01-16T08:29:19;100162.66;;;21.21;25.43
78625;BME280;67944;0.000;0.000;2024-01-16T08:31:44;100155.53;;;21.22;25.47
78625;BME280;67944;0.000;0.000;2024-01-16T08:34:10;100164.06;;;21.24;25.85
78625;BME280;67944;0.000;0.000;2024-01-16T08:36:35;100160.22;;;21.26;25.59
78625;BME280;67944;0.000;0.000;2024-01-16T08:39:01;100161.88;;;21.27;25.37
78625;BME280;67944;0.000;0.000;2024-01-16T08:41:26;100171.28;;;21.30;25.48
78625;BME280;67944;0.000;0.000;2024-01-16T08:43:51;100183.31;;;21.32;25.59
78625;BME280;67944;0.000;0.000;2024-01-16T08:46:18;100184.13;;;21.33;25.88
78625;BME280;67944;0.000;0.000;2024-01-16T08:48:46;100192.72;;;21.35;25.80
78625;BME280;67944;0.000;0.000;2024-01-16T08:51:12;100195.34;;;21.35;25.64
78625;BME280;67944;0.000;0.000;2024-01-16T08:53:37;100189.88;;;21.36;25.79
78625;BME280;67944;0.000;0.000;2024-01-16T08:56:03;100184.38;;;21.38;25.51
78625;BME280;67944;0.000;0.000;2024-01-16T08:58:32;100193.78;;;21.40;25.36
78625;BME280;67944;0.000;0.000;2024-01-16T09:01:02;100188.28;;;21.42;25.61
78625;BME280;67944;0.000;0.000;2024-01-16T09:03:28;100193.41;;;21.43;25.66
78625;BME280;67944;0.000;0.000;2024-01-16T09:05:53;100195.00;;;21.44;26.01
78625;BME280;67944;0.000;0.000;2024-01-16T09:08:19;100192.34;;;21.44;25.65
78625;BME280;67944;0.000;0.000;2024-01-16T09:10:44;100197.47;;;21.46;25.36
78625;BME280;67944;0.000;0.000;2024-01-16T09:13:10;100191.16;;;21.47;25.59
78625;BME280;67944;0.000;0.000;2024-01-16T09:15:35;100197.28;;;21.47;26.16
78625;BME280;67944;0.000;0.000;2024-01-16T09:18:01;100199.94;;;21.47;25.67
78625;BME280;67944;0.000;0.000;2024-01-16T09:20:26;100206.25;;;21.46;26.04
78625;BME280;67944;0.000;0.000;2024-01-16T09:22:52;100203.41;;;21.48;25.52
78625;BME280;67944;0.000;0.000;2024-01-16T09:25:17;100198.91;;;21.48;25.59
78625;BME280;67944;0.000;0.000;2024-01-16T09:27:43;100208.50;;;21.49;25.57
78625;BME280;67944;0.000;0.000;2024-01-16T09:30:08;100196.09;;;21.50;25.88
78625;BME280;67944;0.000;0.000;2024-01-16T09:32:34;100197.72;;;21.51;25.77
78625;BME280;67944;0.000;0.000;2024-01-16T09:35:02;100187.94;;;21.51;25.65
78625;BME280;67944;0.000;0.000;2024-01-16T09:37:29;100199.34;;;21.52;25.54
78625;BME280;67944;0.000;0.000;2024-01-16T09:39:55;100195.50;;;21.54;25.75
78625;BME280;67944;0.000;0.000;2024-01-16T09:42:20;100204.28;;;21.55;25.89
78625;BME280;67944;0.000;0.000;2024-01-16T09:44:48;100197.16;;;21.55;25.84
78625;BME280;67944;0.000;0.000;2024-01-16T09:47:16;100194.50;;;21.55;25.62
78625;BME280;67944;0.000;0.000;2024-01-16T09:49:45;100198.97;;;21.55;26.10
78625;BME280;67944;0.000;0.000;2024-01-16T09:52:11;100198.97;;;21.55;26.05
78625;BME280;67944;0.000;0.000;2024-01-16T09:54:37;100199.81;;;21.55;25.78
78625;BME280;67944;0.000;0.000;2024-01-16T09:57:06;100192.66;;;21.56;25.71
78625;BME280;67944;0.000;0.000;2024-01-16T09:59:36;100192.47;;;21.58;25.89
78625;BME280;67944;0.000;0.000;2024-01-16T10:02:02;100194.50;;;21.55;25.42
78625;BME280;67944;0.000;0.000;2024-01-16T10:04:33;100184.28;;;21.52;25.29
78625;BME280;67944;0.000;0.000;2024-01-16T10:07:01;100194.06;;;21.52;25.80
78625;BME280;67944;0.000;0.000;2024-01-16T10:09:27;100193.44;;;21.50;25.31
78625;BME280;67944;0.000;0.000;2024-01-16T10:11:54;100199.56;;;21.50;25.92
78625;BME280;67944;0.000;0.000;2024-01-16T10:14:20;100199.34;;;21.52;25.56
78625;BME280;67944;0.000;0.000;2024-01-16T10:16:56;100198.34;;;21.53;25.31
78625;BME280;67944;0.000;0.000;2024-01-16T10:19:27;100199.81;;;21.55;25.23
78625;BME280;67944;0.000;0.000;2024-01-16T10:21:52;100209.38;;;21.57;25.72
78625;BME280;67944;0.000;0.000;2024-01-16T10:24:25;100198.59;;;21.58;25.46
78625;BME280;67944;0.000;0.000;2024-01-16T10:26:58;100189.63;;;21.59;25.64
78625;BME280;67944;0.000;0.000;2024-01-16T10:29:25;100193.72;;;21.62;25.66
78625;BME280;67944;0.000;0.000;2024-01-16T10:31:50;100198.66;;;21.65;25.58
78625;BME280;67944;0.000;0.000;2024-01-16T10:34:22;100191.31;;;21.67;25.56
78625;BME280;67944;0.000;0.000;2024-01-16T10:36:51;100188.25;;;21.70;25.56
78625;BME280;67944;0.000;0.000;2024-01-16T10:39:18;100179.31;;;21.71;25.43
78625;BME280;67944;0.000;0.000;2024-01-16T10:41:57;100179.94;;;21.73;25.31
78625;BME280;67944;0.000;0.000;2024-01-16T10:44:23;100173.44;;;21.75;25.29
78625;BME280;67944;0.000;0.000;2024-01-16T10:46:48;100167.75;;;21.78;25.28
78625;BME280;67944;0.000;0.000;2024-01-16T10:49:14;100168.38;;;21.80;25.22
78625;BME280;67944;0.000;0.000;2024-01-16T10:51:43;100161.84;;;21.83;25.33
78625;BME280;67944;0.000;0.000;2024-01-16T10:54:12;100154.53;;;21.85;25.54
78625;BME280;67944;0.000;0.000;2024-01-16T10:56:45;100157.78;;;21.87;25.24
78625;BME280;67944;0.000;0.000;2024-01-16T10:59:23;100152.09;;;21.90;25.60
78625;BME280;67944;0.000;0.000;2024-01-16T11:01:53;100153.72;;;21.91;25.15
78625;BME280;67944;0.000;0.000;2024-01-16T11:04:20;100149.25;;;21.92;25.26
78625;BME280;67944;0.000;0.000;2024-01-16T11:06:47;100149.03;;;21.93;25.29
78625;BME280;67944;0.000;0.000;2024-01-16T11:09:13;100149.66;;;21.95;25.27
78625;BME280;67944;0.000;0.000;2024-01-16T11:11:46;100144.19;;;21.97;25.17
78625;BME280;67944;0.000;0.000;2024-01-16T11:14:16;100138.69;;;21.98;25.38
78625;BME280;67944;0.000;0.000;2024-01-16T11:16:42;100128.06;;;21.98;25.16
78625;BME280;67944;0.000;0.000;2024-01-16T11:19:08;100143.78;;;22.00;25.16
78625;BME280;67944;0.000;0.000;2024-01-16T11:21:36;100125.06;;;22.01;25.17
78625;BME280;67944;0.000;0.000;2024-01-16T11:24:03;100119.75;;;22.01;25.12
78625;BME280;67944;0.000;0.000;2024-01-16T11:26:31;100112.44;;;22.03;25.06
78625;BME280;67944;0.000;0.000;2024-01-16T11:28:58;100119.38;;;22.04;25.18
78625;BME280;67944;0.000;0.000;2024-01-16T11:31:35;100112.84;;;22.07;25.13
78625;BME280;67944;0.000;0.000;2024-01-16T11:34:01;100108.38;;;22.07;24.93
78625;BME280;67944;0.000;0.000;2024-01-16T11:36:53;100104.69;;;22.08;25.00
78625;BME280;67944;0.000;0.000;2024-01-16T11:39:21;100106.31;;;22.09;25.16
78625;BME280;67944;0.000;0.000;2024-01-16T11:41:58;100097.34;;;22.10;25.15
78625;BME280;67944;0.000;0.000;2024-01-16T11:47:08;100099.78;;;22.12;24.93
78625;BME280;67944;0.000;0.000;2024-01-16T11:49:37;100086.34;;;22.13;24.90
78625;BME280;67944;0.000;0.000;2024-01-16T11:52:03;100074.09;;;22.12;24.83
78625;BME280;67944;0.000;0.000;2024-01-16T11:54:29;100076.53;;;22.14;24.95
78625;BME280;67944;0.000;0.000;2024-01-16T12:02:02;100070.41;;;22.13;25.30
78625;BME280;67944;0.000;0.000;2024-01-16T12:04:31;100069.59;;;22.13;25.13
78625;BME280;67944;0.000;0.000;2024-01-16T12:07:00;100074.91;;;22.13;24.95
78625;BME280;67944;0.000;0.000;2024-01-16T12:09:26;100069.59;;;22.13;24.82
78625;BME280;67944;0.000;0.000;2024-01-16T12:12:02;100066.75;;;22.14;24.96
78625;BME280;67944;0.000;0.000;2024-01-16T12:14:28;100068.59;;;22.14;24.75
78625;BME280;67944;0.000;0.000;2024-01-16T12:17:13;100055.53;;;22.12;25.02
78625;BME280;67944;0.000;0.000;2024-01-16T12:19:40;100052.06;;;22.12;25.08
78625;BME280;67944;0.000;0.000;2024-01-16T12:22:13;100052.06;;;22.12;24.96
78625;BME280;67944;0.000;0.000;2024-01-16T12:24:39;100055.53;;;22.12;24.94
78625;BME280;67944;0.000;0.000;2024-01-16T12:27:05;100045.94;;;22.11;25.17
78625;BME280;67944;0.000;0.000;2024-01-16T12:29:32;100057.34;;;22.12;24.84
78625;BME280;67944;0.000;0.000;2024-01-16T12:32:13;100049.41;;;22.12;25.11
78625;BME280;67944;0.000;0.000;2024-01-16T12:34:46;100046.94;;;22.10;24.96
78625;BME280;67944;0.000;0.000;2024-01-16T12:37:11;100049.78;;;22.09;24.81
78625;BME280;67944;0.000;0.000;2024-01-16T12:39:38;100030.44;;;22.08;24.93
78625;BME280;67944;0.000;0.000;2024-01-16T12:42:05;100024.09;;;22.09;25.33
78625;BME280;67944;0.000;0.000;2024-01-16T12:44:31;100020.63;;;22.09;25.13
78625;BME280;67944;0.000;0.000;2024-01-16T12:46:57;100015.31;;;22.09;25.30
78625;BME280;67944;0.000;0.000;2024-01-16T12:49:23;100012.91;;;22.07;25.48
78625;BME280;67944;0.000;0.000;2024-01-16T12:51:50;100007.59;;;22.07;24.98
78625;BME280;67944;0.000;0.000;2024-01-16T12:54:17;100005.75;;;22.08;25.36
78625;BME280;67944;0.000;0.000;2024-01-16T12:56:44;100009.22;;;22.08;25.08
78625;BME280;67944;0.000;0.000;2024-01-16T12:59:11;100007.59;;;22.07;25.18
78625;BME280;67944;0.000;0.000;2024-01-16T13:01:44;100009.22;;;22.08;25.16
78625;BME280;67944;0.000;0.000;2024-01-16T13:04:11;100002.28;;;22.07;25.55